createdAt,value
2018-06-18T00:01:52.791Z,77.80
2018-06-18T00:04:21.293Z,77.80
2018-06-18T00:06:50.597Z,77.70
2018-06-18T00:09:19.766Z,77.60
2018-06-18T00:11:48.744Z,77.80
2018-06-18T00:14:17.268Z,77.40
2018-06-18T00:16:46.050Z,77.70
2018-06-18T00:19:14.569Z,77.40
2018-06-18T00:21:43.037Z,77.70
2018-06-18T00:24:11.460Z,77.00
2018-06-18T00:26:39.931Z,77.00
2018-06-18T00:29:08.554Z,77.20
2018-06-18T00:31:36.971Z,77.00
2018-06-18T00:34:05.474Z,76.90
2018-06-18T00:36:33.885Z,76.90
2018-06-18T00:39:02.437Z,76.60
2018-06-18T00:41:30.850Z,77.20
2018-06-18T00:43:59.351Z,77.40
2018-06-18T00:46:27.798Z,77.30
2018-06-18T00:48:56.294Z,77.30
2018-06-18T00:51:24.736Z,77.20
2018-06-18T00:53:53.247Z,77.20
2018-06-18T00:56:21.681Z,77.20
2018-06-18T00:58:51.038Z,77.40
2018-06-18T01:01:20.236Z,77.50
2018-06-18T01:03:49.044Z,77.50
2018-06-18T01:06:17.816Z,77.40
2018-06-18T01:08:46.242Z,77.20
2018-06-18T01:11:14.738Z,77.40
2018-06-18T01:13:43.274Z,77.50
2018-06-18T01:16:11.808Z,77.30
2018-06-18T01:18:40.317Z,77.60
2018-06-18T01:21:08.840Z,77.40
2018-06-18T01:25:46.206Z,77.30
2018-06-18T01:28:14.689Z,77.40
2018-06-18T01:30:43.179Z,77.20
2018-06-18T01:33:11.620Z,77.30
2018-06-18T01:35:40.055Z,77.20
2018-06-18T01:38:08.624Z,77.50
2018-06-18T01:40:37.125Z,77.20
2018-06-18T01:43:05.674Z,77.40
2018-06-18T01:45:34.173Z,77.30
2018-06-18T01:48:02.816Z,77.40
2018-06-18T01:50:31.366Z,77.60
2018-06-18T01:52:59.852Z,77.60
2018-06-18T01:55:28.365Z,77.30
2018-06-18T01:57:56.856Z,77.40
2018-06-18T02:00:25.310Z,77.70
2018-06-18T02:02:53.813Z,77.60
2018-06-18T02:05:22.212Z,77.70
2018-06-18T02:07:50.761Z,77.70
2018-06-18T02:10:20.553Z,77.70
2018-06-18T02:12:49.759Z,77.40
2018-06-18T02:15:19.176Z,77.50
2018-06-18T02:17:48.019Z,77.70
2018-06-18T02:20:16.430Z,77.70
2018-06-18T02:25:41.727Z,78.00
2018-06-18T02:30:49.086Z,77.60
2018-06-18T02:33:23.931Z,77.60
2018-06-18T02:35:57.819Z,77.50
2018-06-18T02:38:31.554Z,77.50
2018-06-18T02:41:00.182Z,77.60
2018-06-18T02:43:28.718Z,77.70
2018-06-18T02:45:57.187Z,77.50
2018-06-18T02:48:25.745Z,77.70
2018-06-18T02:50:54.206Z,77.70
2018-06-18T02:53:22.691Z,77.80
2018-06-18T02:55:51.990Z,78.20
2018-06-18T02:58:21.256Z,78.20
2018-06-18T03:00:49.745Z,78.30
2018-06-18T03:03:18.586Z,78.20
2018-06-18T03:05:47.082Z,78.30
2018-06-18T03:08:15.558Z,78.40
2018-06-18T03:10:43.982Z,78.10
2018-06-18T03:13:12.501Z,77.90
2018-06-18T03:15:40.970Z,77.90
2018-06-18T03:18:13.666Z,77.60
2018-06-18T03:20:47.508Z,77.60
2018-06-18T03:23:21.771Z,77.30
2018-06-18T03:25:55.839Z,77.40
2018-06-18T03:28:29.608Z,77.70
2018-06-18T03:30:58.173Z,77.60
2018-06-18T03:33:26.718Z,77.30
2018-06-18T03:35:55.782Z,77.50
2018-06-18T03:38:24.341Z,77.40
2018-06-18T03:40:52.827Z,77.70
2018-06-18T03:43:21.250Z,77.50
2018-06-18T03:45:50.053Z,77.70
2018-06-18T03:48:18.846Z,77.80
2018-06-18T03:50:47.339Z,77.70
2018-06-18T03:53:15.921Z,77.40
2018-06-18T03:55:48.664Z,77.60
2018-06-18T03:58:17.124Z,78.20
2018-06-18T04:00:58.053Z,77.50
2018-06-18T04:03:31.862Z,77.70
2018-06-18T04:06:05.525Z,78.00
2018-06-18T04:08:34.097Z,77.80
2018-06-18T04:11:08.013Z,78.00
2018-06-18T04:13:36.639Z,78.10
2018-06-18T04:16:05.285Z,77.90
2018-06-18T04:18:38.008Z,77.70
2018-06-18T04:21:06.393Z,77.90
2018-06-18T04:26:02.997Z,78.20
2018-06-18T04:28:31.434Z,78.30
2018-06-18T04:31:00.047Z,78.10
2018-06-18T04:33:28.858Z,78.30
2018-06-18T04:35:57.274Z,78.30
2018-06-18T04:38:25.690Z,78.20
2018-06-18T04:40:54.185Z,78.10
2018-06-18T04:43:28.027Z,78.90
2018-06-18T04:46:02.141Z,78.30
2018-06-18T04:48:36.178Z,78.30
2018-06-18T04:51:05.131Z,78.30
2018-06-18T04:53:33.673Z,78.30
2018-06-18T04:56:02.119Z,78.00
2018-06-18T04:58:30.656Z,78.30
2018-06-18T05:01:16.786Z,78.40
2018-06-18T05:03:45.290Z,78.60
2018-06-18T05:06:13.884Z,78.50
2018-06-18T05:09:59.546Z,78.50
2018-06-18T05:12:28.060Z,78.50
2018-06-18T05:14:56.649Z,78.30
2018-06-18T05:17:25.207Z,78.30
2018-06-18T05:19:53.765Z,78.00
2018-06-18T05:22:22.246Z,78.10
2018-06-18T05:24:52.898Z,78.10
2018-06-18T05:27:26.687Z,78.20
2018-06-18T05:29:56.623Z,78.10
2018-06-18T05:32:25.056Z,77.80
2018-06-18T05:34:53.468Z,78.00
2018-06-18T05:37:30.958Z,78.00
2018-06-18T05:39:59.475Z,78.60
2018-06-18T05:42:27.991Z,77.80
2018-06-18T05:44:56.433Z,77.80
2018-06-18T05:47:24.942Z,77.70
2018-06-18T05:49:53.413Z,77.90
2018-06-18T05:52:22.211Z,77.90
2018-06-18T05:54:51.378Z,78.10
2018-06-18T05:57:19.881Z,78.30
2018-06-18T05:59:48.373Z,78.40
2018-06-18T06:02:17.410Z,78.30
2018-06-18T06:04:45.974Z,78.40
2018-06-18T06:07:14.551Z,78.20
2018-06-18T06:09:42.964Z,78.20
2018-06-18T06:12:11.536Z,77.80
2018-06-18T06:14:40.017Z,77.80
2018-06-18T06:17:08.483Z,77.60
2018-06-18T06:19:36.988Z,77.50
2018-06-18T06:22:05.555Z,77.60
2018-06-18T06:24:34.113Z,77.30
2018-06-18T06:27:02.893Z,77.20
2018-06-18T06:29:31.448Z,77.00
2018-06-18T06:32:00.179Z,76.90
2018-06-18T06:34:28.718Z,76.90
2018-06-18T06:36:57.198Z,77.10
2018-06-18T06:39:25.657Z,77.20
2018-06-18T06:42:00.334Z,77.20
2018-06-18T06:44:28.804Z,77.40
2018-06-18T06:46:57.324Z,76.80
2018-06-18T06:49:26.168Z,77.10
2018-06-18T06:51:54.713Z,77.30
2018-06-18T06:54:23.241Z,76.90
2018-06-18T06:56:51.777Z,76.90
2018-06-18T06:59:21.178Z,76.70
2018-06-18T07:01:49.896Z,76.60
2018-06-18T07:04:19.480Z,76.60
2018-06-18T07:06:48.113Z,76.80
2018-06-18T07:09:17.056Z,76.80
2018-06-18T07:11:45.544Z,76.40
2018-06-18T07:14:14.129Z,76.50
2018-06-18T07:16:42.614Z,76.50
2018-06-18T07:19:11.236Z,76.40
2018-06-18T07:21:39.671Z,76.20
2018-06-18T07:24:08.204Z,76.10
2018-06-18T07:26:36.629Z,76.10
2018-06-18T07:29:05.383Z,76.20
2018-06-18T07:31:33.900Z,76.40
2018-06-18T07:34:02.474Z,76.30
2018-06-18T07:36:31.064Z,75.70
2018-06-18T07:38:59.724Z,75.80
2018-06-18T07:41:28.192Z,75.50
2018-06-18T07:43:56.748Z,75.70
2018-06-18T07:46:25.241Z,75.80
2018-06-18T07:48:53.801Z,75.80
2018-06-18T07:51:22.324Z,75.20
2018-06-18T07:53:51.442Z,75.40
2018-06-18T07:56:20.614Z,75.50
2018-06-18T07:58:49.850Z,75.10
2018-06-18T08:01:18.998Z,74.90
2018-06-18T08:03:47.522Z,75.30
2018-06-18T08:06:15.972Z,75.30
2018-06-18T08:08:44.433Z,74.90
2018-06-18T08:11:12.954Z,75.00
2018-06-18T08:13:41.555Z,74.80
2018-06-18T08:16:09.946Z,74.50
2018-06-18T08:18:38.455Z,74.60
2018-06-18T08:21:07.006Z,74.20
2018-06-18T08:23:35.423Z,74.40
2018-06-18T08:26:04.044Z,74.60
2018-06-18T08:28:32.572Z,74.80
2018-06-18T08:31:01.218Z,74.80
2018-06-18T08:33:29.767Z,74.70
2018-06-18T08:35:58.400Z,74.50
2018-06-18T08:38:27.061Z,74.10
2018-06-18T08:40:56.596Z,74.60
2018-06-18T08:43:25.013Z,73.40
2018-06-18T08:45:53.823Z,73.50
2018-06-18T08:48:27.665Z,74.30
2018-06-18T08:51:01.548Z,74.10
2018-06-18T08:53:35.451Z,73.80
2018-06-18T08:56:09.208Z,73.90
2018-06-18T08:58:43.009Z,73.30
2018-06-18T09:01:20.185Z,73.80
2018-06-18T09:03:53.138Z,73.60
2018-06-18T09:06:21.943Z,74.00
2018-06-18T09:08:55.392Z,73.80
2018-06-18T09:11:23.993Z,73.00
2018-06-18T09:13:52.718Z,73.40
2018-06-18T09:16:21.207Z,72.80
2018-06-18T09:18:50.268Z,73.50
2018-06-18T09:21:19.128Z,73.40
2018-06-18T09:23:47.645Z,72.90
2018-06-18T09:28:44.291Z,72.90
2018-06-18T09:31:12.859Z,72.50
2018-06-18T09:33:44.115Z,72.60
2018-06-18T09:36:12.770Z,72.20
2018-06-18T09:38:41.240Z,73.00
2018-06-18T09:41:09.728Z,72.70
2018-06-18T09:43:38.217Z,73.10
2018-06-18T09:46:06.688Z,72.30
2018-06-18T09:48:40.433Z,72.20
2018-06-18T09:51:14.580Z,72.50
2018-06-18T09:56:23.204Z,72.00
2018-06-18T09:58:57.102Z,71.70
2018-06-18T10:03:59.285Z,72.20
2018-06-18T10:06:28.645Z,71.90
2018-06-18T10:09:01.635Z,72.10
2018-06-18T10:11:30.067Z,72.10
2018-06-18T10:13:58.577Z,71.50
2018-06-18T10:16:27.014Z,71.90
2018-06-18T10:18:55.488Z,71.40
2018-06-18T10:21:23.898Z,70.70
2018-06-18T10:23:52.376Z,71.20
2018-06-18T10:26:21.401Z,71.90
2018-06-18T10:28:50.635Z,71.20
2018-06-18T10:31:19.825Z,71.70
2018-06-18T10:33:53.696Z,72.00
2018-06-18T10:36:27.650Z,71.50
2018-06-18T10:40:04.237Z,72.30
2018-06-18T10:42:37.948Z,71.20
2018-06-18T10:45:06.569Z,71.00
2018-06-18T10:47:35.134Z,71.10
2018-06-18T10:50:03.662Z,70.60
2018-06-18T10:52:32.161Z,70.60
2018-06-18T10:55:00.624Z,70.50
2018-06-18T10:57:29.182Z,70.70
2018-06-18T10:59:57.655Z,71.30
2018-06-18T11:02:26.237Z,71.80
2018-06-18T11:05:00.025Z,69.70
2018-06-18T11:07:28.636Z,70.40
2018-06-18T11:09:57.198Z,69.20
2018-06-18T11:12:25.699Z,69.80
2018-06-18T11:14:54.304Z,69.40
2018-06-18T11:17:28.438Z,69.40
2018-06-18T11:20:02.230Z,69.00
2018-06-18T11:22:35.905Z,69.90
2018-06-18T11:26:07.708Z,69.00
2018-06-18T11:28:36.204Z,69.20
2018-06-18T11:31:04.853Z,67.90
2018-06-18T11:33:33.353Z,68.10
2018-06-18T11:36:01.870Z,69.20
2018-06-18T11:38:30.311Z,68.40
2018-06-18T11:40:58.739Z,67.90
2018-06-18T11:43:27.291Z,67.80
2018-06-18T11:45:56.017Z,68.30
2018-06-18T11:48:24.749Z,67.00
2018-06-18T11:50:53.299Z,66.30
2018-06-18T11:53:21.740Z,67.00
2018-06-18T11:55:51.112Z,67.20
2018-06-18T11:58:24.607Z,66.70
2018-06-18T12:00:58.518Z,66.50
2018-06-18T12:03:32.409Z,65.90
2018-06-18T12:06:06.368Z,66.20
2018-06-18T12:08:40.381Z,65.60
2018-06-18T12:11:09.116Z,66.40
2018-06-18T12:13:37.617Z,67.00
2018-06-18T12:16:06.180Z,66.90
2018-06-18T12:18:34.664Z,67.70
2018-06-18T12:21:03.158Z,66.70
2018-06-18T12:23:31.567Z,67.20
2018-06-18T12:26:00.140Z,66.70
2018-06-18T12:28:28.617Z,65.20
2018-06-18T12:30:57.139Z,64.50
2018-06-18T12:33:25.533Z,64.30
2018-06-18T12:35:54.136Z,64.90
2018-06-18T12:38:22.665Z,65.30
2018-06-18T12:40:52.384Z,66.00
2018-06-18T12:43:23.559Z,63.50
2018-06-18T12:45:58.732Z,64.90
2018-06-18T12:48:32.391Z,65.90
2018-06-18T12:51:06.087Z,65.70
2018-06-18T12:53:41.005Z,63.90
2018-06-18T12:56:14.993Z,64.20
2018-06-18T12:58:43.497Z,65.90
2018-06-18T13:01:13.690Z,65.70
2018-06-18T13:03:42.134Z,64.20
2018-06-18T13:06:10.718Z,65.10
2018-06-18T13:11:07.713Z,63.70
2018-06-18T13:13:36.164Z,64.20
2018-06-18T13:16:04.827Z,64.80
2018-06-18T13:18:33.336Z,64.10
2018-06-18T13:21:03.495Z,65.10
2018-06-18T13:23:31.969Z,64.50
2018-06-18T13:26:00.500Z,64.60
2018-06-18T13:28:29.052Z,65.00
2018-06-18T13:30:58.884Z,65.10
2018-06-18T13:33:27.384Z,63.00
2018-06-18T13:35:55.977Z,63.40
2018-06-18T13:38:29.724Z,64.40
2018-06-18T13:41:03.521Z,65.00
2018-06-18T13:43:37.148Z,64.90
2018-06-18T13:46:11.178Z,63.80
2018-06-18T13:48:46.482Z,63.50
2018-06-18T13:51:15.259Z,61.30
2018-06-18T13:53:43.757Z,60.80
2018-06-18T13:56:12.209Z,61.00
2018-06-18T13:58:40.763Z,63.90
2018-06-18T14:01:10.564Z,62.50
2018-06-18T14:05:03.581Z,63.20
2018-06-18T14:07:32.111Z,62.90
2018-06-18T14:10:00.559Z,61.40
2018-06-18T14:12:29.068Z,61.00
2018-06-18T14:14:57.620Z,62.00
2018-06-18T14:17:26.110Z,62.20
2018-06-18T14:19:59.889Z,63.10
2018-06-18T14:22:28.376Z,62.00
2018-06-18T14:24:56.825Z,61.20
2018-06-18T14:27:25.275Z,59.60
2018-06-18T14:29:59.229Z,60.40
2018-06-18T14:32:33.148Z,59.50
2018-06-18T14:35:08.137Z,60.10
2018-06-18T14:37:42.078Z,59.50
2018-06-18T14:40:12.885Z,59.00
2018-06-18T14:42:41.459Z,59.50
2018-06-18T14:45:10.085Z,59.00
2018-06-18T14:47:38.643Z,60.40
2018-06-18T14:50:07.390Z,58.90
2018-06-18T14:52:36.061Z,60.50
2018-06-18T14:55:05.296Z,59.70
2018-06-18T14:57:33.837Z,60.60
2018-06-18T15:00:22.316Z,60.10
2018-06-18T15:02:51.581Z,61.20
2018-06-18T15:05:21.651Z,58.70
2018-06-18T15:07:51.019Z,60.00
2018-06-18T15:10:24.430Z,60.70
2018-06-18T15:12:53.991Z,59.50
2018-06-18T15:15:28.322Z,60.00
2018-06-18T15:17:56.843Z,59.30
2018-06-18T15:20:25.560Z,60.10
2018-06-18T15:22:58.872Z,59.70
2018-06-18T15:27:56.711Z,59.90
2018-06-18T15:30:25.159Z,59.30
2018-06-18T15:32:53.589Z,59.20
2018-06-18T15:35:22.084Z,58.90
2018-06-18T15:40:20.890Z,59.90
2018-06-18T15:42:49.688Z,59.90
2018-06-18T15:47:47.169Z,58.70
2018-06-18T15:50:16.138Z,58.60
2018-06-18T15:52:44.675Z,59.50
2018-06-18T15:55:13.117Z,58.70
2018-06-18T15:57:41.597Z,58.60
2018-06-18T16:00:11.015Z,58.50
2018-06-18T16:02:39.521Z,59.50
2018-06-18T16:05:07.979Z,58.70
2018-06-18T16:07:36.491Z,59.10
2018-06-18T16:10:05.380Z,59.40
2018-06-18T16:12:34.434Z,59.70
2018-06-18T16:15:02.993Z,58.90
2018-06-18T16:17:31.430Z,60.00
2018-06-18T16:19:59.876Z,58.20
2018-06-18T16:22:28.294Z,59.60
2018-06-18T16:24:57.184Z,58.90
2018-06-18T16:27:25.761Z,59.40
2018-06-18T16:29:54.262Z,58.50
2018-06-18T16:32:22.697Z,59.60
2018-06-18T16:34:51.608Z,59.80
2018-06-18T16:37:20.541Z,59.30
2018-06-18T16:39:49.298Z,59.30
2018-06-18T16:42:17.764Z,59.90
2018-06-18T16:44:46.184Z,60.30
2018-06-18T16:47:14.693Z,60.00
2018-06-18T16:49:43.285Z,58.20
2018-06-18T16:52:11.664Z,59.90
2018-06-18T16:54:40.163Z,60.90
2018-06-18T16:57:08.614Z,59.90
2018-06-18T16:59:37.098Z,60.50
2018-06-18T17:02:06.009Z,60.10
2018-06-18T17:04:34.537Z,59.10
2018-06-18T17:07:03.029Z,61.50
2018-06-18T17:09:31.557Z,61.70
2018-06-18T17:11:59.993Z,62.20
2018-06-18T17:14:28.494Z,61.60
2018-06-18T17:16:56.898Z,61.50
2018-06-18T17:19:25.391Z,60.40
2018-06-18T17:21:53.855Z,60.70
2018-06-18T17:24:22.290Z,61.90
2018-06-18T17:26:51.361Z,62.60
2018-06-18T17:29:20.302Z,63.60
2018-06-18T17:31:49.414Z,63.30
2018-06-18T17:34:18.562Z,64.10
2018-06-18T17:36:47.055Z,64.00
2018-06-18T17:39:15.590Z,61.90
2018-06-18T17:44:12.214Z,62.90
2018-06-18T17:46:40.669Z,61.40
2018-06-18T17:49:09.200Z,62.30
2018-06-18T17:51:37.643Z,63.40
2018-06-18T17:54:06.733Z,62.70
2018-06-18T17:56:35.264Z,63.20
2018-06-18T17:59:03.821Z,63.00
2018-06-18T18:01:32.322Z,63.20
2018-06-18T18:04:00.889Z,64.30
2018-06-18T18:06:29.410Z,63.90
2018-06-18T18:08:57.988Z,64.90
2018-06-18T18:11:26.440Z,64.10
2018-06-18T18:13:55.102Z,63.60
2018-06-18T18:16:23.641Z,63.60
2018-06-18T18:18:52.206Z,64.30
2018-06-18T18:21:21.255Z,63.90
2018-06-18T18:23:49.923Z,63.40
2018-06-18T18:26:18.575Z,64.60
2018-06-18T18:28:47.114Z,64.70
2018-06-18T18:31:15.708Z,65.80
2018-06-18T18:33:44.290Z,66.10
2018-06-18T18:36:12.950Z,66.00
2018-06-18T18:38:41.872Z,65.40
2018-06-18T18:41:10.357Z,65.30
2018-06-18T18:43:38.925Z,65.90
2018-06-18T18:46:07.401Z,67.00
2018-06-18T18:48:35.929Z,66.60
2018-06-18T18:51:04.575Z,67.20
2018-06-18T18:53:33.217Z,66.70
2018-06-18T18:56:13.005Z,68.50
2018-06-18T18:59:25.482Z,68.30
2018-06-18T19:01:53.993Z,68.30
2018-06-18T19:04:28.788Z,69.50
2018-06-18T19:06:57.296Z,69.40
2018-06-18T19:09:29.089Z,69.80
2018-06-18T19:11:57.593Z,69.40
2018-06-18T19:14:26.368Z,69.20
2018-06-18T19:16:54.793Z,70.20
2018-06-18T19:19:24.962Z,70.20
2018-06-18T19:21:53.458Z,69.80
2018-06-18T19:24:21.933Z,70.50
2018-06-18T19:26:51.125Z,70.40
2018-06-18T19:29:20.382Z,70.50
2018-06-18T19:31:49.511Z,70.00
2018-06-18T19:34:21.066Z,70.70
2018-06-18T19:36:51.570Z,70.40
2018-06-18T19:39:20.781Z,70.50
2018-06-18T19:41:49.541Z,70.70
2018-06-18T19:44:18.047Z,70.50
2018-06-18T19:46:58.922Z,71.30
2018-06-18T19:49:27.405Z,71.40
2018-06-18T19:51:55.934Z,71.20
2018-06-18T19:54:26.824Z,71.80
2018-06-18T19:56:55.407Z,71.40
2018-06-18T19:59:23.777Z,72.10
2018-06-18T20:01:52.301Z,72.00
2018-06-18T20:04:21.702Z,72.20
2018-06-18T20:06:50.892Z,71.70
2018-06-18T20:09:19.616Z,71.60
2018-06-18T20:11:48.164Z,72.20
2018-06-18T20:14:16.620Z,71.50
2018-06-18T20:16:45.073Z,72.10
2018-06-18T20:19:13.587Z,72.40
2018-06-18T20:21:42.984Z,72.10
2018-06-18T20:24:11.395Z,72.20
2018-06-18T20:26:39.964Z,72.90
2018-06-18T20:29:08.425Z,72.20
2018-06-18T20:31:36.993Z,72.80
2018-06-18T20:34:06.116Z,72.90
2018-06-18T20:36:34.716Z,72.90
2018-06-18T20:39:03.283Z,72.70
2018-06-18T20:41:31.885Z,72.60
2018-06-18T20:44:09.853Z,72.60
2018-06-18T20:46:38.872Z,72.40
2018-06-18T20:49:09.019Z,72.70
2018-06-18T20:51:37.493Z,73.50
2018-06-18T20:54:06.269Z,73.10
2018-06-18T20:56:34.848Z,73.20
2018-06-18T20:59:04.165Z,73.30
2018-06-18T21:01:32.602Z,73.40
2018-06-18T21:04:01.107Z,73.60
2018-06-18T21:06:29.580Z,73.40
2018-06-18T21:08:58.093Z,74.20
2018-06-18T21:11:27.037Z,73.20
2018-06-18T21:13:55.535Z,73.50
2018-06-18T21:16:24.786Z,73.70
2018-06-18T21:18:53.319Z,73.70
2018-06-18T21:21:22.010Z,73.80
2018-06-18T21:23:50.530Z,73.70
2018-06-18T21:26:19.706Z,74.00
2018-06-18T21:28:48.220Z,74.00
2018-06-18T21:31:16.749Z,74.40
2018-06-18T21:33:45.280Z,75.00
2018-06-18T21:36:13.785Z,75.10
2018-06-18T21:38:42.264Z,75.10
2018-06-18T21:41:10.700Z,75.00
2018-06-18T21:43:39.209Z,75.00
2018-06-18T21:48:36.004Z,75.40
2018-06-18T23:13:02.578Z,75.80
2018-06-18T23:15:31.051Z,76.90
2018-06-18T23:17:59.604Z,77.00
2018-06-18T23:20:28.095Z,76.70
2018-06-18T23:22:56.704Z,77.10
2018-06-18T23:25:25.210Z,76.70
2018-06-18T23:27:53.835Z,76.70
2018-06-18T23:30:22.287Z,76.70
